Time;durP1;ratioP1;P1;durP2;ratioP2;P2;SDS_P1;SDS_P2;PMS_P1;PMS_P2;Temp;Humidity;BMP_temperature;BMP_pressure;BME280_temperature;BME280_humidity;BME280_pressure;Samples;Min_cycle;Max_cycle;Signal;HPM_P1;HPM_P2
2022/01/23 00:02:04;;;;;;;;;;;1.70;99.90;;;;;;5008377;28;20084;-53
2022/01/23 00:04:30;;;;;;;19.77;8.73;;;1.70;99.90;;;;;;5011798;28;19909;-51
2022/01/23 00:06:56;;;;;;;20.27;9.60;;;1.70;99.90;;;;;;5001838;28;20683;-53
2022/01/23 00:09:21;;;;;;;13.43;8.18;;;1.70;99.90;;;;;;5005516;28;20030;-52
2022/01/23 00:11:52;;;;;;;15.43;8.48;;;1.80;99.90;;;;;;5038355;28;20089;-53
2022/01/23 00:17:20;;;;;;;16.10;8.57;;;1.80;99.90;;;;;;5004566;28;20036;-51
2022/01/23 00:19:53;;;;;;;18.42;9.80;;;1.80;99.90;;;;;;5003411;28;20042;-52
2022/01/23 00:22:23;;;;;;;18.73;9.32;;;1.80;99.90;;;;;;5032099;28;20525;-51
2022/01/23 00:30:27;;;;;;;18.67;9.32;;;1.80;99.90;;;;;;5003195;28;20083;-51
2022/01/23 00:32:55;;;;;;;20.63;9.40;;;1.80;99.90;;;;;;5003914;28;20642;-51
2022/01/23 00:35:21;;;;;;;20.20;9.32;;;1.80;99.90;;;;;;5005182;28;20482;-51
2022/01/23 00:37:46;;;;;;;25.45;10.02;;;1.80;99.90;;;;;;5006026;28;20041;-52
2022/01/23 00:40:12;;;;;;;19.63;9.27;;;1.80;99.90;;;;;;5007509;28;20096;-52
2022/01/23 00:42:38;;;;;;;24.35;8.80;;;1.80;99.90;;;;;;5009725;28;20029;-50
2022/01/23 00:45:26;;;;;;;15.68;8.88;;;1.80;99.90;;;;;;5008991;28;20037;-52
2022/01/23 00:48:05;;;;;;;19.50;9.30;;;1.80;99.90;;;;;;5011027;28;20457;-52
2022/01/23 00:50:36;;;;;;;21.55;10.32;;;1.80;99.90;;;;;;5007399;28;20040;-51
2022/01/23 00:53:04;;;;;;;20.33;9.60;;;1.90;99.90;;;;;;5038081;28;20040;-52
2022/01/23 00:55:30;;;;;;;18.88;9.45;;;1.90;99.90;;;;;;5007502;28;20094;-50
2022/01/23 00:57:56;;;;;;;21.05;9.00;;;1.80;99.90;;;;;;5006545;28;20538;-53
2022/01/23 01:00:22;;;;;;;29.60;11.27;;;1.80;99.90;;;;;;5007243;28;20029;-50
2022/01/23 01:02:48;;;;;;;15.52;9.30;;;1.80;99.90;;;;;;5007798;28;20037;-50
2022/01/23 01:05:15;;;;;;;22.50;10.48;;;1.80;99.90;;;;;;5006052;28;20057;-54
2022/01/23 01:07:40;;;;;;;24.27;10.98;;;1.80;99.90;;;;;;5010696;28;20033;-51
2022/01/23 01:10:14;;;;;;;22.98;10.82;;;1.80;99.90;;;;;;5008740;28;20782;-51
2022/01/23 01:12:43;;;;;;;19.77;8.65;;;1.80;99.90;;;;;;5008478;28;20113;-54
2022/01/23 01:33:52;;;;;;;19.30;9.68;;;1.70;99.90;;;;;;5009288;28;20111;-51
2022/01/23 01:39:16;;;;;;;22.83;10.80;;;1.80;99.90;;;;;;4998525;28;20050;-51
2022/01/23 01:41:43;;;;;;;22.58;10.18;;;1.80;99.90;;;;;;5006984;28;20752;-52
2022/01/23 01:44:09;;;;;;;18.27;10.38;;;1.80;99.90;;;;;;5004432;28;20652;-51
2022/01/23 01:46:35;;;;;;;22.08;10.80;;;1.80;99.90;;;;;;5003632;28;21252;-53
2022/01/23 01:49:01;;;;;;;24.90;11.80;;;1.80;99.90;;;;;;5005960;28;20029;-51
2022/01/23 01:51:31;;;;;;;22.00;10.63;;;1.80;99.90;;;;;;5008587;28;20178;-51
2022/01/23 01:54:03;;;;;;;18.60;9.63;;;1.80;99.90;;;;;;5008198;28;20018;-54
2022/01/23 01:56:40;;;;;;;19.60;9.75;;;1.80;99.90;;;;;;5006123;28;20095;-50
2022/01/23 02:14:45;;;;;;;21.02;9.68;;;1.80;99.90;;;;;;5004336;28;20033;-51
2022/01/23 02:17:41;;;;;;;15.20;7.50;;;1.80;99.90;;;;;;5001898;28;20079;-50
2022/01/23 02:52:48;;;;;;;15.15;8.18;;;1.80;99.90;;;;;;5006863;28;21187;-50
2022/01/23 02:55:17;;;;;;;12.32;6.70;;;1.80;99.90;;;;;;5007398;28;20469;-50
2022/01/23 03:00:13;;;;;;;16.63;8.25;;;1.70;99.90;;;;;;5007478;28;20305;-50
2022/01/23 03:02:48;;;;;;;18.60;8.48;;;1.70;99.90;;;;;;5005382;28;20548;-50
2022/01/23 03:08:26;;;;;;;13.88;8.30;;;1.70;99.90;;;;;;4988175;28;20049;-51
2022/01/23 03:11:02;;;;;;;11.98;7.63;;;1.70;99.90;;;;;;5005979;28;20038;-50
2022/01/23 03:26:50;;;;;;;15.35;7.95;;;1.80;99.90;;;;;;5003762;28;20041;-50
2022/01/23 03:34:17;;;;;;;28.05;11.52;;;1.80;99.90;;;;;;5005012;28;20037;-50
2022/01/23 03:36:43;;;;;;;25.38;10.88;;;1.80;99.90;;;;;;5004541;28;20045;-49
2022/01/23 03:39:10;;;;;;;15.02;7.80;;;1.80;99.90;;;;;;5003863;28;20038;-50
2022/01/23 03:41:38;;;;;;;16.95;9.27;;;1.90;99.90;;;;;;5004769;28;20069;-50
2022/01/23 03:44:06;;;;;;;19.55;10.32;;;1.90;99.90;;;;;;5005726;28;20036;-51
2022/01/23 03:49:34;;;;;;;22.08;9.50;;;1.80;99.90;;;;;;5004770;28;20040;-53
2022/01/23 03:52:06;;;;;;;17.65;9.02;;;1.80;99.90;;;;;;5004932;28;20022;-50
2022/01/23 03:54:33;;;;;;;18.25;9.45;;;1.80;99.90;;;;;;5007225;28;20099;-50
2022/01/23 03:57:01;;;;;;;17.65;8.93;;;1.80;99.90;;;;;;5008330;28;20041;-49
2022/01/23 03:59:29;;;;;;;24.67;10.65;;;1.80;99.90;;;;;;5012602;28;20021;-49
2022/01/23 04:01:55;;;;;;;18.95;10.05;;;1.80;99.90;;;;;;5010182;28;20075;-50
2022/01/23 04:07:15;;;;;;;18.05;8.65;;;1.80;99.90;;;;;;5015561;28;20038;-49
2022/01/23 04:09:42;;;;;;;18.55;8.88;;;1.80;99.90;;;;;;5019891;28;20474;-50
2022/01/23 04:12:11;;;;;;;16.48;8.10;;;1.80;99.90;;;;;;5018463;28;20038;-49
2022/01/23 04:14:43;;;;;;;17.73;7.60;;;1.80;99.90;;;;;;5017758;28;20367;-49
2022/01/23 04:20:03;;;;;;;15.40;8.27;;;1.80;99.90;;;;;;5015156;28;22360;-50
2022/01/23 05:00:50;;;;;;;22.63;8.52;;;1.80;99.90;;;;;;5015011;28;20132;-50
2022/01/23 05:06:04;;;;;;;14.23;6.78;;;1.80;99.90;;;;;;5023914;28;20056;-51
2022/01/23 05:08:33;;;;;;;15.98;7.80;;;1.70;99.90;;;;;;5014244;28;20402;-50
2022/01/23 05:11:01;;;;;;;16.58;7.95;;;1.80;99.90;;;;;;5021424;28;20440;-50
2022/01/23 05:13:28;;;;;;;12.93;7.82;;;1.70;99.90;;;;;;5015505;28;20039;-50
2022/01/23 05:15:55;;;;;;;14.15;7.00;;;1.80;99.90;;;;;;5025235;28;20026;-50
2022/01/23 05:18:21;;;;;;;15.63;7.97;;;1.70;99.90;;;;;;5023306;28;20402;-50
2022/01/23 05:20:53;;;;;;;16.63;8.50;;;1.70;99.90;;;;;;5011366;28;20037;-50
2022/01/23 05:23:18;;;;;;;16.50;7.88;;;1.70;99.90;;;;;;5016366;28;20032;-51
2022/01/23 05:25:44;;;;;;;16.38;8.25;;;1.70;99.90;;;;;;5014696;28;20537;-49
2022/01/23 05:28:10;;;;;;;18.45;8.02;;;1.70;99.90;;;;;;5018428;28;20064;-50
2022/01/23 05:30:36;;;;;;;15.02;7.25;;;1.80;99.90;;;;;;5014171;28;20057;-50
2022/01/23 05:33:02;;;;;;;13.98;8.00;;;1.80;99.90;;;;;;5021877;28;20021;-50
2022/01/23 05:35:30;;;;;;;14.77;7.30;;;1.80;99.90;;;;;;5017400;28;20355;-50
2022/01/23 05:37:56;;;;;;;17.60;7.47;;;1.80;99.90;;;;;;5028788;28;20390;-50
2022/01/23 05:40:24;;;;;;;13.85;7.50;;;1.80;99.90;;;;;;5023081;28;20049;-51
2022/01/23 05:42:50;;;;;;;15.90;7.53;;;1.80;99.90;;;;;;5026818;28;20036;-50
2022/01/23 05:45:16;;;;;;;14.88;6.97;;;1.80;99.90;;;;;;5015384;28;20037;-51
2022/01/23 05:47:41;;;;;;;11.13;6.90;;;1.80;99.90;;;;;;5016979;28;20045;-51
2022/01/23 05:50:07;;;;;;;19.15;8.20;;;1.80;99.90;;;;;;5013948;28;20389;-51
2022/01/23 05:52:34;;;;;;;11.70;7.18;;;1.80;99.90;;;;;;5014775;28;20063;-51
2022/01/23 05:55:00;;;;;;;16.95;8.20;;;1.70;99.90;;;;;;5017946;28;20029;-50
2022/01/23 05:57:25;;;;;;;14.00;8.07;;;1.80;99.90;;;;;;5019307;28;20025;-51
2022/01/23 05:59:51;;;;;;;12.82;6.28;;;1.80;99.90;;;;;;5015072;28;20076;-51
2022/01/23 06:02:17;;;;;;;12.52;6.82;;;1.80;99.90;;;;;;5015192;28;20048;-50
2022/01/23 06:04:43;;;;;;;16.05;7.75;;;1.80;99.90;;;;;;5015706;28;20037;-50
2022/01/23 06:07:08;;;;;;;15.13;8.48;;;1.80;99.90;;;;;;5013851;28;20038;-50
2022/01/23 06:09:37;;;;;;;16.10;7.97;;;1.80;99.90;;;;;;5017167;28;20030;-50
2022/01/23 06:12:04;;;;;;;13.55;7.57;;;1.80;99.90;;;;;;5013578;28;20045;-51
2022/01/23 06:14:29;;;;;;;13.73;9.05;;;1.80;99.90;;;;;;5013427;28;20501;-50
2022/01/23 06:16:55;;;;;;;16.30;6.97;;;1.90;99.90;;;;;;5011268;28;20038;-50
2022/01/23 06:19:21;;;;;;;13.85;7.28;;;1.80;99.90;;;;;;5007725;28;20474;-50
2022/01/23 06:21:46;;;;;;;14.98;7.40;;;1.80;99.90;;;;;;5010738;28;20580;-49
2022/01/23 06:24:31;;;;;;;17.77;7.70;;;1.90;99.90;;;;;;5017245;28;20023;-50
2022/01/23 06:26:59;;;;;;;13.85;7.13;;;1.90;99.90;;;;;;5053035;28;20489;-49
2022/01/23 06:29:30;;;;;;;13.13;7.10;;;1.90;99.90;;;;;;5014192;28;20061;-51
2022/01/23 06:31:58;;;;;;;11.57;6.32;;;1.90;99.90;;;;;;5017391;28;20045;-50
2022/01/23 06:34:24;;;;;;;14.13;7.53;;;1.90;99.90;;;;;;5017039;28;20040;-50
2022/01/23 06:36:52;;;;;;;11.68;6.03;;;1.90;99.90;;;;;;5020628;28;20490;-50
2022/01/23 06:39:18;;;;;;;12.07;7.30;;;1.90;99.90;;;;;;5013131;28;20589;-50
2022/01/23 06:41:43;;;;;;;14.80;7.15;;;1.90;99.90;;;;;;5008129;28;20783;-50
2022/01/23 06:44:10;;;;;;;11.82;6.88;;;1.90;99.90;;;;;;5013193;28;20038;-53
2022/01/23 06:46:38;;;;;;;15.95;7.05;;;1.90;99.90;;;;;;5013375;28;20037;-50
2022/01/23 06:49:04;;;;;;;16.23;7.97;;;1.80;99.90;;;;;;5019755;28;20021;-50
2022/01/23 06:51:29;;;;;;;15.40;7.07;;;1.80;99.90;;;;;;5013233;28;20446;-50
2022/01/23 06:53:55;;;;;;;19.63;8.85;;;1.80;99.90;;;;;;5015769;28;20030;-50
2022/01/23 06:56:21;;;;;;;20.67;9.80;;;1.80;99.90;;;;;;5015457;28;20105;-50
2022/01/23 06:58:46;;;;;;;16.55;8.95;;;1.80;99.90;;;;;;5016928;28;20028;-50
2022/01/23 07:01:12;;;;;;;19.13;9.18;;;1.80;99.90;;;;;;5015858;28;20514;-50
2022/01/23 07:03:38;;;;;;;19.52;9.30;;;1.80;99.90;;;;;;5017717;28;20037;-51
2022/01/23 07:06:04;;;;;;;15.48;7.75;;;1.80;99.90;;;;;;5018360;28;20026;-50
2022/01/23 07:08:31;;;;;;;87.70;43.40;;;1.80;99.90;;;;;;5017131;28;20119;-50
2022/01/23 07:10:57;;;;;;;48.97;25.15;;;1.80;99.90;;;;;;5013514;28;20076;-50
2022/01/23 07:13:23;;;;;;;27.65;11.80;;;1.90;99.90;;;;;;5021553;28;20655;-50
2022/01/23 07:15:49;;;;;;;16.85;8.40;;;1.90;99.90;;;;;;5017608;28;20033;-50
2022/01/23 07:18:18;;;;;;;17.13;8.05;;;1.80;99.90;;;;;;5017461;28;20058;-51
2022/01/23 07:20:45;;;;;;;15.68;7.35;;;1.80;99.90;;;;;;5020273;28;20045;-51
2022/01/23 07:23:11;;;;;;;12.20;8.15;;;1.70;99.90;;;;;;5016696;28;20042;-51
2022/01/23 07:25:38;;;;;;;12.45;7.38;;;1.70;99.90;;;;;;5021535;28;20044;-50
2022/01/23 07:28:06;;;;;;;13.85;6.65;;;1.80;99.90;;;;;;5018681;28;20760;-49
2022/01/23 07:30:39;;;;;;;11.00;6.45;;;1.70;99.90;;;;;;5014530;28;20037;-50
2022/01/23 07:33:05;;;;;;;13.07;6.82;;;1.70;99.90;;;;;;5036788;28;20487;-50
2022/01/23 07:35:31;;;;;;;9.90;6.32;;;1.70;99.90;;;;;;5011934;28;20155;-50
2022/01/23 07:37:56;;;;;;;12.20;6.53;;;1.70;99.90;;;;;;5012996;28;20397;-52
2022/01/23 07:40:22;;;;;;;11.75;6.28;;;1.70;99.90;;;;;;5014000;28;20038;-50
2022/01/23 07:42:48;;;;;;;12.82;6.65;;;1.70;99.90;;;;;;5012520;28;20081;-50
2022/01/23 07:45:14;;;;;;;14.27;7.18;;;1.70;99.90;;;;;;5009864;28;20471;-50
2022/01/23 07:47:39;;;;;;;14.27;7.43;;;1.70;99.90;;;;;;5010420;28;20125;-50
2022/01/23 07:50:08;;;;;;;11.98;6.93;;;1.80;99.90;;;;;;5018506;28;20252;-50
2022/01/23 07:52:35;;;;;;;13.80;7.38;;;1.80;99.90;;;;;;5008394;28;20091;-50
2022/01/23 07:55:06;;;;;;;14.55;7.90;;;1.80;99.90;;;;;;5010201;28;20038;-51
2022/01/23 07:57:33;;;;;;;17.50;7.32;;;1.90;99.90;;;;;;5013216;28;20038;-50
2022/01/23 07:59:59;;;;;;;12.52;7.30;;;1.90;99.90;;;;;;5012295;28;20581;-50
2022/01/23 08:02:25;;;;;;;16.95;8.32;;;1.90;99.90;;;;;;5017363;28;20038;-50
2022/01/23 08:04:50;;;;;;;10.38;6.05;;;1.90;99.90;;;;;;5013578;28;20067;-49
2022/01/23 08:07:31;;;;;;;13.40;7.18;;;1.90;99.90;;;;;;5012599;28;20545;-49
2022/01/23 08:10:02;;;;;;;11.43;6.13;;;1.90;99.90;;;;;;5017165;28;20195;-49
2022/01/23 08:12:29;;;;;;;14.13;7.50;;;1.90;99.90;;;;;;5010354;28;20482;-52
2022/01/23 08:14:56;;;;;;;16.17;7.30;;;1.90;99.90;;;;;;5009992;28;20145;-50
2022/01/23 08:17:24;;;;;;;16.55;7.65;;;1.90;99.90;;;;;;5012880;28;20034;-49
2022/01/23 08:19:55;;;;;;;13.43;7.27;;;1.90;99.90;;;;;;5020774;28;20079;-50
2022/01/23 08:22:26;;;;;;;51.35;29.63;;;1.90;99.90;;;;;;5012409;28;20346;-49
2022/01/23 08:24:54;;;;;;;32.20;15.18;;;2.00;99.90;;;;;;5010968;28;20033;-50
2022/01/23 08:27:20;;;;;;;25.17;10.97;;;1.90;99.90;;;;;;5012208;28;20041;-50
2022/01/23 08:29:46;;;;;;;26.27;11.27;;;1.90;99.90;;;;;;5014090;28;20346;-51
2022/01/23 08:32:11;;;;;;;15.93;8.43;;;1.90;99.90;;;;;;5011318;28;20131;-50
2022/01/23 08:34:38;;;;;;;16.58;7.88;;;1.90;99.90;;;;;;5014790;28;20446;-53
2022/01/23 08:37:05;;;;;;;17.42;7.68;;;1.90;99.90;;;;;;5016884;28;20021;-50
2022/01/23 08:39:34;;;;;;;17.58;8.18;;;1.80;99.90;;;;;;5015163;28;20025;-49
2022/01/23 08:42:00;;;;;;;16.77;8.77;;;1.80;99.90;;;;;;5015942;28;20478;-49
2022/01/23 08:44:28;;;;;;;17.48;9.70;;;1.90;99.90;;;;;;5017433;28;20040;-50
2022/01/23 08:46:54;;;;;;;20.15;9.85;;;1.90;99.90;;;;;;5016363;28;20141;-50
2022/01/23 08:49:21;;;;;;;19.25;9.45;;;1.90;99.90;;;;;;5020754;28;20025;-50
2022/01/23 08:51:48;;;;;;;16.33;9.43;;;1.90;99.90;;;;;;5014442;28;20398;-50
2022/01/23 08:54:15;;;;;;;21.65;10.05;;;1.90;99.90;;;;;;5017307;28;20033;-51
2022/01/23 08:56:41;;;;;;;19.45;9.90;;;2.00;99.90;;;;;;5013689;28;20149;-50
2022/01/23 08:59:07;;;;;;;16.50;9.10;;;2.00;99.90;;;;;;5015850;28;20445;-50
2022/01/23 09:01:34;;;;;;;16.83;8.93;;;2.00;99.90;;;;;;5020945;28;20042;-51
2022/01/23 09:04:00;;;;;;;22.20;9.43;;;1.90;99.90;;;;;;5016414;28;20064;-50
2022/01/23 09:06:26;;;;;;;17.20;9.82;;;2.00;99.90;;;;;;5017268;28;20112;-50
2022/01/23 09:08:53;;;;;;;16.45;8.85;;;2.00;99.90;;;;;;5020348;28;20030;-50
2022/01/23 09:14:17;;;;;;;19.00;8.05;;;2.00;99.90;;;;;;5014021;28;20402;-50
2022/01/23 09:16:43;;;;;;;15.25;8.95;;;2.00;99.90;;;;;;5017292;28;20037;-51
2022/01/23 09:19:09;;;;;;;17.10;8.57;;;2.00;99.90;;;;;;5016293;28;20020;-50
2022/01/23 09:21:36;;;;;;;15.48;7.40;;;2.00;99.90;;;;;;5027133;28;20284;-51
2022/01/23 09:24:02;;;;;;;20.75;8.18;;;2.10;99.90;;;;;;5020441;28;20120;-50
2022/01/23 09:26:28;;;;;;;16.80;8.25;;;2.10;99.90;;;;;;5021332;28;20041;-51
2022/01/23 09:28:57;;;;;;;17.67;9.82;;;2.00;99.90;;;;;;5023589;28;20489;-51
2022/01/23 09:31:34;;;;;;;16.60;8.70;;;2.10;99.90;;;;;;5027136;28;20038;-50
2022/01/23 09:34:01;;;;;;;17.63;9.00;;;2.10;99.90;;;;;;5018944;28;20018;-50
2022/01/23 09:36:27;;;;;;;16.77;8.80;;;2.10;99.90;;;;;;5018669;28;20042;-49
2022/01/23 09:38:53;;;;;;;16.77;9.40;;;2.10;99.90;;;;;;5017887;28;20051;-49
2022/01/23 09:41:27;;;;;;;25.23;9.73;;;2.20;99.90;;;;;;5021223;28;20057;-49
2022/01/23 09:43:55;;;;;;;20.25;9.77;;;2.10;99.90;;;;;;5016797;28;20029;-49
2022/01/23 09:46:23;;;;;;;23.13;10.20;;;2.10;99.90;;;;;;5016399;28;20487;-50
2022/01/23 09:48:51;;;;;;;21.83;9.93;;;2.20;99.90;;;;;;5025297;28;20048;-50
2022/01/23 09:51:19;;;;;;;20.77;10.43;;;2.20;99.90;;;;;;5021494;28;20497;-50
2022/01/23 09:53:46;;;;;;;20.60;10.02;;;2.30;99.90;;;;;;5014028;28;20459;-50
2022/01/23 09:56:14;;;;;;;17.58;10.05;;;2.30;99.90;;;;;;5015184;28;20026;-50
2022/01/23 09:58:41;;;;;;;20.92;10.65;;;2.20;99.90;;;;;;5019209;28;20080;-52
2022/01/23 10:01:06;;;;;;;19.65;10.02;;;2.20;99.90;;;;;;5027675;28;20132;-50
2022/01/23 10:03:32;;;;;;;19.38;9.35;;;2.30;99.90;;;;;;5016650;28;20121;-50
2022/01/23 10:05:58;;;;;;;22.88;9.38;;;2.30;99.90;;;;;;5019159;28;20033;-50
2022/01/23 10:08:29;;;;;;;19.77;9.23;;;2.30;99.90;;;;;;5015384;28;20398;-50
2022/01/23 10:10:56;;;;;;;18.10;9.68;;;2.30;99.90;;;;;;5020619;28;20108;-51
2022/01/23 10:13:24;;;;;;;24.17;11.98;;;2.30;99.90;;;;;;5017212;28;20021;-50
2022/01/23 10:15:50;;;;;;;22.40;10.25;;;2.40;99.90;;;;;;5017604;28;20076;-50
2022/01/23 10:18:18;;;;;;;21.40;10.48;;;2.40;99.90;;;;;;5023828;28;20398;-50
2022/01/23 10:20:46;;;;;;;17.73;9.38;;;2.50;99.90;;;;;;5019300;28;20057;-50
2022/01/23 10:23:12;;;;;;;22.05;10.38;;;2.50;99.90;;;;;;5019560;28;20112;-50
2022/01/23 10:25:41;;;;;;;20.73;9.68;;;2.50;99.90;;;;;;5019093;28;20132;-50
2022/01/23 10:28:09;;;;;;;15.55;8.40;;;2.50;99.90;;;;;;5011725;28;20033;-51
2022/01/23 10:30:43;;;;;;;;;;;2.50;99.90;;;;;;5012663;28;20034;-50
2022/01/23 10:33:16;;;;;;;17.45;9.13;;;2.50;99.90;;;;;;5015143;28;20342;-50
2022/01/23 10:35:52;;;;;;;17.42;8.50;;;2.60;99.90;;;;;;5014493;28;20075;-49
2022/01/23 10:38:19;;;;;;;23.27;10.02;;;2.60;99.90;;;;;;5018393;28;20104;-50
2022/01/23 10:40:53;;;;;;;21.63;9.43;;;2.60;99.90;;;;;;5017421;28;20054;-50
2022/01/23 10:48:45;;;;;;;20.10;9.63;;;2.60;99.90;;;;;;5016624;28;20031;-50
2022/01/23 10:51:17;;;;;;;21.40;9.77;;;2.70;99.90;;;;;;5043053;28;20085;-50
2022/01/23 10:54:13;;;;;;;20.50;9.93;;;2.70;99.90;;;;;;5016512;28;21133;-50
2022/01/23 10:56:54;;;;;;;18.90;9.38;;;2.70;99.90;;;;;;5017621;28;20565;-50
2022/01/23 10:59:20;;;;;;;19.80;9.75;;;2.80;99.90;;;;;;5017936;28;20064;-49
2022/01/23 11:02:03;;;;;;;18.10;9.27;;;2.70;99.90;;;;;;5017927;28;20041;-50
2022/01/23 11:04:31;;;;;;;21.08;9.90;;;2.80;99.90;;;;;;5016483;28;20038;-49
2022/01/23 11:07:03;;;;;;;19.33;9.33;;;2.80;99.90;;;;;;5021506;28;20029;-51
2022/01/23 11:09:36;;;;;;;16.15;8.70;;;2.90;99.90;;;;;;5021530;28;20166;-50
2022/01/23 11:12:14;;;;;;;18.48;9.27;;;2.90;99.90;;;;;;5029552;28;20040;-50
2022/01/23 11:17:26;;;;;;;19.48;9.63;;;3.00;99.90;;;;;;5020950;28;20047;-49
2022/01/23 11:19:58;;;;;;;21.27;9.52;;;3.00;99.90;;;;;;5032181;28;20026;-49
2022/01/23 11:22:25;;;;;;;18.25;9.75;;;3.00;99.90;;;;;;5018480;28;20055;-50
2022/01/23 11:24:52;;;;;;;16.95;9.20;;;3.00;99.90;;;;;;5019209;28;20069;-49
2022/01/23 11:27:20;;;;;;;19.20;9.48;;;3.10;99.90;;;;;;5012958;28;20029;-50
2022/01/23 11:29:53;;;;;;;18.92;9.75;;;3.10;99.90;;;;;;5019688;28;20113;-49
2022/01/23 11:32:21;;;;;;;17.80;8.90;;;3.10;99.90;;;;;;5015524;28;20580;-49
2022/01/23 11:34:50;;;;;;;19.88;9.60;;;3.10;99.90;;;;;;5020421;28;20056;-50
2022/01/23 11:37:16;;;;;;;17.02;8.18;;;3.10;99.90;;;;;;5016630;28;20044;-49
2022/01/23 11:39:48;;;;;;;16.42;8.60;;;3.20;99.90;;;;;;5016417;28;20041;-50
2022/01/23 11:59:31;;;;;;;19.85;10.07;;;3.30;99.90;;;;;;5025101;28;20055;-51
2022/01/23 12:02:09;;;;;;;16.92;9.30;;;3.40;99.90;;;;;;5022576;28;20088;-50
2022/01/23 12:04:35;;;;;;;19.02;8.82;;;3.40;99.90;;;;;;5023584;28;20486;-50
2022/01/23 12:07:03;;;;;;;15.07;8.25;;;3.40;99.90;;;;;;5019052;28;20029;-51
2022/01/23 12:09:29;;;;;;;20.48;8.60;;;3.40;99.90;;;;;;5019906;28;20029;-51
2022/01/23 12:12:20;;;;;;;18.92;8.00;;;3.50;99.90;;;;;;5015257;28;20038;-51
2022/01/23 12:17:18;;;;;;;16.73;8.93;;;3.50;99.90;;;;;;5012199;28;20030;-50
2022/01/23 12:19:49;;;;;;;15.20;8.20;;;3.50;99.90;;;;;;5016744;28;20495;-50
2022/01/23 12:22:24;;;;;;;21.42;8.88;;;3.60;99.90;;;;;;5016427;28;20038;-52
2022/01/23 12:24:52;;;;;;;17.63;8.55;;;3.60;99.90;;;;;;5028459;28;20406;-51
2022/01/23 12:27:27;;;;;;;15.98;8.38;;;3.60;99.90;;;;;;5018143;28;20780;-50
2022/01/23 12:30:10;;;;;;;15.23;7.38;;;3.60;99.90;;;;;;5027198;28;20037;-50
2022/01/23 12:32:36;;;;;;;13.45;8.30;;;3.50;99.90;;;;;;5026184;28;20517;-51
2022/01/23 12:35:08;;;;;;;15.25;8.23;;;3.50;99.90;;;;;;5016477;28;20033;-51
2022/01/23 12:37:55;;;;;;;19.60;9.05;;;3.50;99.90;;;;;;5016251;28;20036;-51
2022/01/23 12:40:31;;;;;;;17.27;8.73;;;3.50;99.90;;;;;;5027578;28;20106;-51
2022/01/23 12:43:07;;;;;;;16.48;8.07;;;3.50;99.90;;;;;;5022646;28;20038;-50
2022/01/23 12:45:53;;;;;;;14.55;7.47;;;3.60;99.90;;;;;;5012638;28;20516;-50
2022/01/23 12:48:25;;;;;;;14.50;7.68;;;3.70;99.90;;;;;;5018224;28;20071;-49
2022/01/23 12:50:53;;;;;;;13.52;7.63;;;3.70;99.90;;;;;;5016493;28;20052;-50
2022/01/23 12:53:18;;;;;;;16.25;8.63;;;3.70;99.90;;;;;;5022016;28;20108;-49
2022/01/23 12:56:04;;;;;;;14.70;8.00;;;3.70;99.90;;;;;;5021794;28;20040;-51
2022/01/23 12:58:32;;;;;;;15.00;7.32;;;3.70;99.90;;;;;;5022334;28;20052;-50
2022/01/23 13:00:59;;;;;;;18.33;7.95;;;3.70;99.90;;;;;;5020357;28;20038;-50
2022/01/23 13:03:26;;;;;;;14.13;7.57;;;3.70;99.90;;;;;;5025565;28;20037;-49
2022/01/23 13:05:52;;;;;;;19.10;8.20;;;3.80;99.90;;;;;;5025632;28;20025;-52
2022/01/23 13:08:26;;;;;;;13.65;6.95;;;3.70;99.90;;;;;;5017594;28;20046;-50
2022/01/23 13:18:38;;;;;;;16.67;8.02;;;3.80;99.90;;;;;;5020929;28;20090;-50
2022/01/23 13:30:14;;;;;;;10.48;6.63;;;3.70;99.90;;;;;;5019877;28;20026;-50
2022/01/23 13:32:27;;;;;;;9.80;5.88;;;3.70;99.90;;;;;;5007109;28;20045;-49
2022/01/23 13:34:57;;;;;;;;;;;3.70;99.90;;;;;;5020219;28;20028;-50
2022/01/23 13:37:30;;;;;;;11.45;6.00;;;3.70;99.90;;;;;;5020911;28;19909;-51
2022/01/23 13:40:03;;;;;;;13.23;6.75;;;3.70;99.90;;;;;;5024019;28;20056;-50
2022/01/23 13:59:28;;;;;;;11.52;6.10;;;3.90;99.90;;;;;;5019836;28;20072;-51
2022/01/23 14:02:09;;;;;;;14.32;7.70;;;3.90;99.90;;;;;;5018697;28;20034;-50
2022/01/23 14:04:46;;;;;;;14.75;7.35;;;3.90;99.90;;;;;;5020533;28;20124;-50
2022/01/23 14:07:15;;;;;;;15.77;6.70;;;3.90;99.90;;;;;;5019004;28;20115;-50
2022/01/23 14:09:43;;;;;;;11.50;6.07;;;3.90;99.90;;;;;;5016396;28;20036;-50
2022/01/23 14:12:15;;;;;;;14.38;6.93;;;4.00;99.90;;;;;;5019288;28;21738;-50
2022/01/23 14:15:03;;;;;;;13.52;7.00;;;4.10;99.90;;;;;;5017322;28;20040;-51
2022/01/23 14:17:31;;;;;;;12.80;6.90;;;4.00;99.90;;;;;;5019749;28;20071;-50
2022/01/23 14:19:58;;;;;;;;;;;4.00;99.90;;;;;;5018554;28;20040;-50
2022/01/23 14:22:33;;;;;;;9.30;5.78;;;4.00;99.90;;;;;;5018233;28;19916;-50
2022/01/23 14:25:12;;;;;;;10.75;6.03;;;4.00;99.90;;;;;;5018895;28;20037;-50
2022/01/23 14:27:40;;;;;;;8.93;5.18;;;4.00;99.90;;;;;;5014053;28;22193;-50
2022/01/23 14:30:09;;;;;;;15.05;6.68;;;4.00;99.90;;;;;;5025635;28;20052;-50
2022/01/23 14:32:42;;;;;;;8.77;5.38;;;4.00;99.90;;;;;;5020433;28;20511;-50
2022/01/23 14:35:26;;;;;;;9.48;5.32;;;4.00;99.90;;;;;;5018364;28;20073;-52
2022/01/23 14:37:52;;;;;;;10.45;5.75;;;4.00;99.90;;;;;;5019642;28;20043;-50
2022/01/23 14:40:21;;;;;;;13.57;6.70;;;4.00;99.90;;;;;;5016246;28;20049;-50
2022/01/23 14:43:16;;;;;;;10.48;5.93;;;4.10;99.90;;;;;;5022532;28;20172;-52
2022/01/23 14:45:48;;;;;;;11.32;7.45;;;4.10;99.90;;;;;;5013295;28;20068;-50
2022/01/23 14:48:15;;;;;;;12.88;7.00;;;4.10;99.90;;;;;;5024876;28;20066;-49
2022/01/23 14:50:50;;;;;;;13.02;6.38;;;4.10;99.90;;;;;;5025194;28;20046;-50
2022/01/23 14:53:24;;;;;;;11.07;5.85;;;4.10;99.90;;;;;;5014483;28;20044;-52
2022/01/23 14:55:57;;;;;;;12.57;5.75;;;4.10;99.90;;;;;;5026939;28;20065;-50
2022/01/23 14:58:23;;;;;;;12.25;6.53;;;4.10;99.90;;;;;;5019449;28;20044;-50
2022/01/23 15:00:52;;;;;;;10.27;5.50;;;4.10;99.90;;;;;;5027368;28;20048;-50
2022/01/23 15:03:19;;;;;;;9.80;5.78;;;4.00;99.90;;;;;;5020008;28;20033;-49
2022/01/23 15:05:45;;;;;;;12.25;6.28;;;4.00;99.90;;;;;;5022534;28;20033;-49
2022/01/23 15:08:13;;;;;;;10.80;6.10;;;4.00;99.90;;;;;;5032137;28;20033;-49
2022/01/23 15:10:41;;;;;;;10.88;6.10;;;4.00;99.90;;;;;;5021543;28;20036;-49
2022/01/23 15:13:07;;;;;;;11.98;6.47;;;4.00;99.90;;;;;;5026095;28;20570;-49
2022/01/23 15:15:33;;;;;;;9.45;6.68;;;4.00;99.90;;;;;;5018926;28;20024;-49
2022/01/23 15:17:59;;;;;;;13.48;6.30;;;4.00;99.90;;;;;;5025801;28;20044;-50
2022/01/23 15:20:25;;;;;;;13.93;5.78;;;4.00;99.90;;;;;;5018741;28;20045;-50
2022/01/23 15:22:51;;;;;;;10.15;6.45;;;3.90;99.90;;;;;;5018548;28;20048;-50
2022/01/23 15:25:18;;;;;;;11.02;5.97;;;3.90;99.90;;;;;;5025030;28;20029;-49
2022/01/23 15:27:45;;;;;;;13.68;6.07;;;3.90;99.90;;;;;;5028176;28;20041;-50
2022/01/23 15:30:13;;;;;;;13.57;6.50;;;3.90;99.90;;;;;;5019215;28;20036;-49
2022/01/23 15:32:39;;;;;;;;;;;4.00;99.90;;;;;;5014865;28;21982;-49
2022/01/23 15:35:06;;;;;;;15.30;7.50;;;3.90;99.90;;;;;;5019088;28;19925;-50
2022/01/23 15:37:32;;;;;;;17.50;8.23;;;3.90;99.90;;;;;;5016955;28;20063;-48
2022/01/23 15:39:58;;;;;;;19.17;9.43;;;3.90;99.90;;;;;;5014338;28;20441;-49
2022/01/23 15:42:24;;;;;;;16.80;8.93;;;3.90;99.90;;;;;;5020101;28;20030;-49
2022/01/23 15:44:50;;;;;;;20.48;8.55;;;3.90;99.90;;;;;;5019731;28;20082;-49
2022/01/23 15:47:16;;;;;;;14.40;7.53;;;3.90;99.90;;;;;;5028089;28;20041;-48
2022/01/23 15:49:41;;;;;;;15.73;8.57;;;3.80;99.90;;;;;;5023417;28;20097;-49
2022/01/23 15:52:07;;;;;;;20.95;9.85;;;3.70;99.90;;;;;;5021129;28;20026;-49
2022/01/23 15:54:36;;;;;;;14.57;8.48;;;3.70;99.90;;;;;;5024610;28;20538;-50
2022/01/23 15:57:04;;;;;;;16.25;8.32;;;3.70;99.90;;;;;;5027701;28;20474;-50
2022/01/23 15:59:29;;;;;;;14.05;6.43;;;3.50;99.90;;;;;;5027208;28;20060;-50
2022/01/23 16:01:56;;;;;;;13.15;6.80;;;3.40;99.90;;;;;;5027399;28;20065;-50
2022/01/23 16:04:23;;;;;;;14.38;7.65;;;3.30;99.90;;;;;;5020324;28;20499;-49
2022/01/23 16:06:49;;;;;;;11.75;7.07;;;3.30;99.90;;;;;;5029534;28;20036;-49
2022/01/23 16:09:15;;;;;;;15.57;8.23;;;3.20;99.90;;;;;;5030309;28;20029;-49
2022/01/23 16:11:41;;;;;;;13.38;7.57;;;3.10;99.90;;;;;;5027943;28;20029;-49
2022/01/23 16:14:08;;;;;;;16.75;7.82;;;3.10;99.90;;;;;;5030807;28;20071;-49
2022/01/23 16:16:34;;;;;;;16.25;8.52;;;3.00;99.90;;;;;;5028743;28;20037;-49
2022/01/23 16:19:00;;;;;;;16.13;8.82;;;2.80;99.90;;;;;;5030969;28;20111;-49
2022/01/23 16:21:27;;;;;;;18.02;8.90;;;2.80;99.90;;;;;;5023011;28;20123;-52
2022/01/23 16:23:53;;;;;;;17.60;9.13;;;2.80;99.90;;;;;;5022669;28;20033;-49
2022/01/23 16:26:19;;;;;;;16.70;9.68;;;2.60;99.90;;;;;;5021741;28;20044;-49
2022/01/23 16:28:47;;;;;;;30.25;20.38;;;2.60;99.90;;;;;;5022029;28;20143;-49
2022/01/23 16:31:13;;;;;;;23.38;14.50;;;2.60;99.90;;;;;;5022669;28;20037;-51
2022/01/23 16:33:40;;;;;;;16.73;11.02;;;2.60;99.90;;;;;;5015344;28;20403;-52